Time;durP1;ratioP1;P1;durP2;ratioP2;P2;SDS_P1;SDS_P2;PMS_P1;PMS_P2;Temp;Humidity;BMP_temperature;BMP_pressure;BME280_temperature;BME280_humidity;BME280_pressure;Samples;Min_cycle;Max_cycle;Signal;HPM_P1;HPM_P2
2021/12/06 00:00:32;;;;;;;18.88;10.57;;;;;;;0.25;94.43;100716.22;6332611;22;20315;-74
2021/12/06 00:03:02;;;;;;;19.02;10.13;;;;;;;0.24;94.39;100723.81;6331536;22;20023;-75
2021/12/06 00:05:30;;;;;;;18.90;10.40;;;;;;;0.19;94.25;100730.44;6334611;22;20014;-75
2021/12/06 00:07:57;;;;;;;20.40;10.70;;;;;;;0.17;94.35;100727.84;6335335;22;20090;-74
2021/12/06 00:10:25;;;;;;;20.70;10.32;;;;;;;0.18;94.38;100729.59;6331385;22;20010;-75
2021/12/06 00:12:52;;;;;;;20.65;9.80;;;;;;;0.14;94.19;100730.31;6328789;22;20090;-74
2021/12/06 00:15:21;;;;;;;18.60;9.70;;;;;;;0.15;94.13;100728.63;6335675;22;20015;-75
2021/12/06 00:17:48;;;;;;;20.75;10.35;;;;;;;0.15;93.96;100737.13;6335719;22;20019;-75
2021/12/06 00:20:17;;;;;;;20.10;10.43;;;;;;;0.11;93.75;100732.75;6330757;22;20015;-74
2021/12/06 00:22:45;;;;;;;25.17;11.77;;;;;;;0.12;93.95;100736.16;6322268;22;20463;-74
2021/12/06 00:25:14;;;;;;;22.35;11.35;;;;;;;0.13;93.96;100730.25;6335784;22;20017;-75
2021/12/06 00:27:42;;;;;;;26.00;12.00;;;;;;;0.14;94.05;100731.97;6335488;22;20472;-74
2021/12/06 00:30:16;;;;;;;27.55;12.43;;;;;;;0.16;93.94;100732.91;6334082;22;20015;-74
2021/12/06 00:32:46;;;;;;;23.92;12.13;;;;;;;0.12;93.54;100733.63;6329749;22;20018;-75
2021/12/06 00:35:19;;;;;;;22.88;12.43;;;;;;;0.13;93.54;100730.25;6334592;22;20015;-74
2021/12/06 00:37:56;;;;;;;28.23;13.98;;;;;;;0.10;93.34;100730.16;6336381;22;20015;-75
2021/12/06 00:40:25;;;;;;;21.58;11.52;;;;;;;0.12;93.50;100738.72;6329383;22;20093;-75
2021/12/06 00:42:53;;;;;;;25.13;12.93;;;;;;;0.11;93.33;100737.84;6327287;22;20137;-74
2021/12/06 00:45:21;;;;;;;23.38;12.18;;;;;;;0.10;93.43;100730.16;6334974;22;20021;-75
2021/12/06 00:47:49;;;;;;;25.88;12.68;;;;;;;0.10;93.73;100730.16;6335910;22;20297;-74
2021/12/06 00:50:18;;;;;;;28.63;12.68;;;;;;;0.09;93.72;100733.50;6333881;22;20014;-74
2021/12/06 00:52:47;;;;;;;25.60;12.95;;;;;;;0.08;93.97;100739.44;6326364;22;20014;-75
2021/12/06 00:55:16;;;;;;;23.77;12.23;;;;;;;0.03;94.18;100728.22;6334996;22;20102;-74
2021/12/06 00:57:44;;;;;;;23.67;11.98;;;;;;;0.07;94.09;100742.78;6336113;22;20018;-74
2021/12/06 01:00:17;;;;;;;23.77;11.23;;;;;;;0.07;94.14;100741.13;6333946;22;20050;-73
2021/12/06 01:02:44;;;;;;;23.17;12.43;;;;;;;0.07;94.45;100743.66;6329325;22;20022;-73
2021/12/06 01:05:13;;;;;;;26.60;12.63;;;;;;;0.09;94.16;100734.38;6335333;22;20017;-74
2021/12/06 01:07:41;;;;;;;26.13;12.15;;;;;;;0.03;94.22;100741.81;6335745;22;20021;-75
2021/12/06 01:10:09;;;;;;;22.08;12.55;;;;;;;0.03;94.40;100743.50;6334539;22;20015;-75
2021/12/06 01:12:37;;;;;;;26.25;13.10;;;;;;;-0.01;94.37;100743.38;6325669;22;20021;-74
2021/12/06 01:15:05;;;;;;;26.02;12.30;;;;;;;0.02;94.56;100745.19;6334833;22;20010;-74
2021/12/06 01:17:32;;;;;;;23.00;12.35;;;;;;;0.01;94.48;100751.09;6335081;22;20007;-75
2021/12/06 01:19:59;;;;;;;20.88;11.75;;;;;;;0.01;94.35;100745.13;6334101;22;20022;-76
2021/12/06 01:22:38;;;;;;;23.15;11.68;;;;;;;-0.01;94.09;100745.91;6329583;22;20129;-75
2021/12/06 01:25:17;;;;;;;27.40;13.15;;;;;;;-0.01;94.04;100748.47;6334816;22;20372;-75
2021/12/06 01:28:11;;;;;;;25.40;12.05;;;;;;;0.03;94.22;100743.50;6335525;22;20015;-75
2021/12/06 01:30:50;;;;;;;26.92;12.25;;;;;;;0.04;93.83;100745.25;6330195;22;20011;-73
2021/12/06 01:33:40;;;;;;;25.08;12.48;;;;;;;0.06;93.77;100754.66;6331949;22;20059;-73
2021/12/06 01:39:13;;;;;;;26.25;12.00;;;;;;;0.08;93.20;100752.16;6335108;22;20088;-74
2021/12/06 01:41:44;;;;;;;27.80;12.68;;;;;;;0.08;93.33;100752.16;6326522;22;20019;-73
2021/12/06 01:44:15;;;;;;;24.92;11.88;;;;;;;0.08;93.15;100752.16;6329891;22;20014;-74
2021/12/06 01:46:45;;;;;;;23.95;11.68;;;;;;;0.06;93.01;100739.38;6335179;22;20015;-74
2021/12/06 01:49:12;;;;;;;25.05;11.63;;;;;;;0.05;93.12;100741.88;6334948;22;20025;-74
2021/12/06 01:51:40;;;;;;;21.42;10.85;;;;;;;0.05;93.15;100736.78;6333125;22;20069;-74
2021/12/06 01:54:10;;;;;;;24.20;10.68;;;;;;;0.06;93.41;100738.50;6329883;22;20017;-74
2021/12/06 01:56:37;;;;;;;22.95;11.32;;;;;;;0.08;93.59;100734.34;6334944;22;20022;-74
2021/12/06 01:59:05;;;;;;;18.20;9.27;;;;;;;0.08;93.36;100729.22;6334231;22;20011;-74
2021/12/06 02:01:32;;;;;;;21.13;10.20;;;;;;;0.08;93.17;100726.69;6331355;22;20050;-74
2021/12/06 02:04:00;;;;;;;18.90;9.70;;;;;;;0.10;92.83;100730.16;6329939;22;20015;-73
2021/12/06 02:06:28;;;;;;;23.85;10.55;;;;;;;0.11;92.85;100734.44;6334069;22;20030;-74
2021/12/06 02:08:56;;;;;;;18.50;9.73;;;;;;;0.12;93.08;100733.63;6334557;22;20061;-74
2021/12/06 02:11:27;;;;;;;16.63;8.70;;;;;;;0.09;93.05;100728.41;6333961;22;20038;-74
2021/12/06 02:14:02;;;;;;;20.70;9.55;;;;;;;0.07;92.73;100730.06;6328944;22;20372;-74
2021/12/06 02:16:38;;;;;;;17.17;8.38;;;;;;;0.05;92.76;100726.59;6334725;22;20117;-73
2021/12/06 02:19:06;;;;;;;16.20;8.00;;;;;;;0.04;92.70;100714.66;6334715;22;20018;-73
2021/12/06 02:21:39;;;;;;;16.92;8.63;;;;;;;0.07;92.84;100724.94;6326254;22;20018;-74
2021/12/06 02:24:09;;;;;;;18.70;8.43;;;;;;;0.05;92.83;100721.50;6332756;22;20017;-74
2021/12/06 02:26:38;;;;;;;17.67;8.50;;;;;;;0.07;92.55;100725.81;6333215;22;20014;-74
2021/12/06 02:29:08;;;;;;;17.75;8.68;;;;;;;0.09;92.36;100724.19;6333877;22;20019;-75
2021/12/06 02:31:37;;;;;;;17.52;8.95;;;;;;;0.11;92.25;100727.66;6332718;22;20019;-75
2021/12/06 02:34:05;;;;;;;18.20;9.07;;;;;;;0.11;92.05;100739.53;6328425;22;20038;-75
2021/12/06 02:36:32;;;;;;;16.35;7.63;;;;;;;0.09;91.72;100730.97;6332083;22;20041;-74
2021/12/06 02:39:01;;;;;;;13.85;7.65;;;;;;;0.09;91.68;100739.47;6332077;22;20359;-74
2021/12/06 02:41:29;;;;;;;15.23;7.47;;;;;;;0.10;91.88;100746.31;6329215;22;20098;-75
2021/12/06 02:43:56;;;;;;;14.70;8.38;;;;;;;0.12;92.03;100741.25;6325251;22;20050;-74
2021/12/06 02:46:24;;;;;;;14.20;7.15;;;;;;;0.14;91.77;100744.72;6333875;22;20011;-74
2021/12/06 02:48:51;;;;;;;14.85;7.70;;;;;;;0.15;92.05;100751.56;6332917;22;20015;-75
2021/12/06 02:51:19;;;;;;;16.15;7.72;;;;;;;0.24;91.79;100751.88;6332398;22;20019;-75
2021/12/06 02:53:47;;;;;;;15.55;7.63;;;;;;;0.21;91.82;100764.50;6330736;22;20022;-74
2021/12/06 02:56:30;;;;;;;15.50;7.18;;;;;;;0.14;91.81;100768.53;6334459;22;20088;-75
2021/12/06 02:58:59;;;;;;;12.73;6.75;;;;;;;0.16;92.08;100768.59;6334767;22;20470;-74
2021/12/06 03:01:31;;;;;;;15.88;6.63;;;;;;;0.23;91.71;100763.75;6333139;22;20447;-75
2021/12/06 03:04:00;;;;;;;11.02;5.80;;;;;;;0.20;91.86;100778.06;6328412;22;20010;-75
2021/12/06 03:06:29;;;;;;;12.43;6.40;;;;;;;0.22;91.96;100776.44;6335048;22;20025;-75
2021/12/06 03:09:04;;;;;;;10.38;5.93;;;;;;;0.18;91.26;100764.41;6334203;22;20010;-75
2021/12/06 03:11:35;;;;;;;7.72;4.10;;;;;;;0.14;91.36;100770.22;6329073;22;20046;-75
2021/12/06 03:14:03;;;;;;;7.15;3.35;;;;;;;0.09;90.66;100753.91;6332114;22;20011;-75
2021/12/06 03:16:31;;;;;;;10.63;4.15;;;;;;;0.08;90.41;100767.47;6333722;22;20015;-75
2021/12/06 03:18:59;;;;;;;6.55;3.95;;;;;;;0.08;90.65;100782.75;6333416;22;20043;-75
2021/12/06 03:21:27;;;;;;;8.20;3.60;;;;;;;0.09;90.64;100779.41;6332082;22;20014;-75
2021/12/06 03:23:56;;;;;;;7.82;3.25;;;;;;;0.09;90.77;100774.28;6322761;22;20011;-76
2021/12/06 03:26:24;;;;;;;6.10;3.45;;;;;;;0.01;89.16;100776.59;6333809;22;20074;-75
2021/12/06 03:28:53;;;;;;;7.43;3.42;;;;;;;0.01;89.49;100775.72;6334521;22;20351;-75
2021/12/06 03:31:21;;;;;;;8.40;4.13;;;;;;;0.02;89.78;100777.44;6333466;22;20021;-75
2021/12/06 03:33:50;;;;;;;7.13;3.85;;;;;;;0.06;89.44;100785.25;6325956;22;20010;-75
2021/12/06 03:36:19;;;;;;;5.95;3.17;;;;;;;0.07;88.60;100786.13;6334076;22;20025;-75
2021/12/06 03:38:47;;;;;;;5.32;3.35;;;;;;;0.07;87.99;100788.66;6334275;22;20081;-74
2021/12/06 03:41:16;;;;;;;6.72;3.13;;;;;;;0.04;87.82;100794.53;6333653;22;20045;-74
2021/12/06 03:43:44;;;;;;;6.63;2.72;;;;;;;0.06;88.31;100799.69;6331568;22;20019;-74
2021/12/06 03:46:14;;;;;;;5.05;2.70;;;;;;;0.04;88.29;100797.06;6335858;22;20094;-74
2021/12/06 03:48:42;;;;;;;6.22;2.85;;;;;;;0.02;88.07;100796.16;6335454;22;20026;-74
2021/12/06 03:51:09;;;;;;;6.50;3.20;;;;;;;0.03;88.38;100794.47;6334194;22;20390;-74
2021/12/06 03:53:37;;;;;;;6.72;2.70;;;;;;;0.05;87.91;100800.50;6327127;22;20090;-74
2021/12/06 03:56:05;;;;;;;6.70;2.78;;;;;;;0.04;88.13;100806.41;6336440;22;20042;-75
2021/12/06 03:58:33;;;;;;;7.28;2.65;;;;;;;0.07;87.85;100804.84;6335108;22;20014;-74
2021/12/06 04:01:02;;;;;;;5.30;2.60;;;;;;;0.09;87.66;100813.41;6330746;22;20445;-75
2021/12/06 04:03:32;;;;;;;5.72;2.30;;;;;;;0.03;86.66;100809.78;6326595;22;20018;-74
2021/12/06 04:06:00;;;;;;;7.78;3.00;;;;;;;0.02;86.62;100808.03;6335911;22;20011;-74
2021/12/06 04:08:27;;;;;;;4.93;2.55;;;;;;;-0.03;86.88;100807.84;6335766;22;20010;-74
2021/12/06 04:10:55;;;;;;;5.95;3.30;;;;;;;-0.02;86.84;100813.00;6335320;22;20017;-74
2021/12/06 04:13:23;;;;;;;5.72;2.88;;;;;;;-0.01;86.86;100818.97;6327029;22;20047;-74
2021/12/06 04:15:50;;;;;;;5.65;2.28;;;;;;;-0.01;86.93;100814.72;6335810;22;20041;-76
2021/12/06 04:18:18;;;;;;;4.82;2.15;;;;;;;-0.04;85.98;100814.63;6335867;22;20011;-75
2021/12/06 04:20:47;;;;;;;7.30;3.28;;;;;;;-0.05;86.35;100812.88;6335218;22;20015;-75
2021/12/06 04:23:15;;;;;;;6.95;2.53;;;;;;;-0.05;86.75;100820.53;6322013;22;20029;-75
2021/12/06 04:25:43;;;;;;;6.40;2.75;;;;;;;-0.01;86.89;100830.03;6335370;22;20015;-75
2021/12/06 04:28:14;;;;;;;4.35;2.20;;;;;;;-0.01;86.63;100813.88;6335493;22;20026;-75
2021/12/06 04:30:43;;;;;;;5.65;2.40;;;;;;;-0.01;85.68;100819.81;6333932;22;20351;-76
2021/12/06 04:33:10;;;;;;;5.30;2.30;;;;;;;0.01;85.49;100826.69;6333046;22;20106;-76
2021/12/06 04:35:39;;;;;;;5.68;2.35;;;;;;;-0.01;85.44;100829.16;6335590;22;20014;-74
2021/12/06 04:38:08;;;;;;;4.25;2.22;;;;;;;0.01;85.08;100829.25;6335765;22;20014;-73
2021/12/06 04:40:36;;;;;;;4.60;2.03;;;;;;;0.02;84.95;100830.97;6334713;22;20413;-74
2021/12/06 04:43:05;;;;;;;3.25;1.85;;;;;;;0.01;84.34;100826.69;6326329;22;20014;-74
2021/12/06 04:45:33;;;;;;;7.38;2.90;;;;;;;-0.01;84.43;100835.13;6335069;22;20015;-73
2021/12/06 04:48:00;;;;;;;4.65;2.25;;;;;;;-0.01;83.79;100835.13;6335235;22;20333;-74
2021/12/06 04:50:32;;;;;;;4.57;2.30;;;;;;;0.01;84.23;100842.84;6330408;22;20338;-74
2021/12/06 04:53:02;;;;;;;4.22;2.05;;;;;;;0.02;84.11;100848.81;6324514;22;20511;-75
2021/12/06 04:55:34;;;;;;;6.85;2.70;;;;;;;0.03;84.23;100835.25;6335155;22;20046;-74
2021/12/06 04:58:04;;;;;;;5.60;2.13;;;;;;;-0.01;83.01;100836.78;6335816;22;20092;-75
2021/12/06 05:00:34;;;;;;;6.88;1.85;;;;;;;-0.05;82.64;100852.78;6330698;22;20544;-75
2021/12/06 05:03:03;;;;;;;4.25;2.30;;;;;;;-0.07;83.34;100845.09;6312465;22;20018;-75
2021/12/06 05:05:34;;;;;;;6.53;2.33;;;;;;;-0.06;83.21;100841.72;6333927;22;20010;-75
2021/12/06 05:08:07;;;;;;;4.63;2.03;;;;;;;-0.07;82.71;100851.88;6334841;22;20537;-75
2021/12/06 05:10:36;;;;;;;3.65;1.80;;;;;;;-0.06;83.36;100854.47;6331496;22;20113;-76
2021/12/06 05:13:04;;;;;;;6.65;2.60;;;;;;;-0.04;83.04;100859.63;6311107;22;20025;-76
2021/12/06 05:15:31;;;;;;;4.18;2.10;;;;;;;-0.03;82.83;100851.16;6334821;22;20015;-74
2021/12/06 05:17:59;;;;;;;5.50;2.28;;;;;;;-0.02;82.76;100853.78;6333081;22;20017;-75
2021/12/06 05:20:27;;;;;;;3.92;1.70;;;;;;;-0.04;81.57;100855.41;6329125;22;20025;-75
2021/12/06 05:22:54;;;;;;;3.65;1.98;;;;;;;-0.04;82.03;100855.41;6307613;22;20018;-75
2021/12/06 05:25:23;;;;;;;5.28;2.00;;;;;;;-0.02;82.25;100858.88;6332964;22;20091;-75
2021/12/06 05:27:53;;;;;;;5.00;2.25;;;;;;;-0.02;82.21;100858.88;6332906;22;20037;-76
2021/12/06 05:30:23;;;;;;;5.18;2.28;;;;;;;-0.01;82.27;100863.16;6329250;22;20063;-75
2021/12/06 05:32:51;;;;;;;4.43;2.13;;;;;;;-0.01;82.08;100852.97;6308669;22;20011;-75
2021/12/06 05:35:18;;;;;;;5.47;2.15;;;;;;;-0.02;82.02;100858.88;6334658;22;20013;-76
2021/12/06 05:37:48;;;;;;;4.30;2.10;;;;;;;-0.03;82.35;100857.13;6333998;22;20011;-75
2021/12/06 05:40:19;;;;;;;5.15;2.30;;;;;;;0.02;82.30;100864.09;6330873;22;20011;-75
2021/12/06 05:42:46;;;;;;;4.63;2.35;;;;;;;0.04;82.47;100858.25;6302135;22;20045;-74
2021/12/06 05:45:17;;;;;;;3.03;1.85;;;;;;;0.07;82.48;100860.03;6334543;22;20303;-75
2021/12/06 05:47:45;;;;;;;4.00;2.20;;;;;;;0.08;82.24;100859.22;6335630;22;20018;-75
2021/12/06 05:50:14;;;;;;;4.38;2.17;;;;;;;0.08;82.11;100852.44;6330761;22;20072;-76
2021/12/06 05:52:41;;;;;;;3.08;1.73;;;;;;;0.09;82.13;100855.88;6310306;22;20011;-75
2021/12/06 05:55:11;;;;;;;4.72;1.90;;;;;;;0.10;82.08;100867.78;6334621;22;20011;-75
2021/12/06 05:57:39;;;;;;;4.35;1.92;;;;;;;0.08;81.98;100866.88;6335181;22;20077;-75
2021/12/06 06:00:09;;;;;;;4.70;2.33;;;;;;;0.07;82.19;100873.66;6331119;22;20102;-75
2021/12/06 06:02:38;;;;;;;3.40;1.73;;;;;;;0.07;82.46;100867.69;6309503;22;20093;-75
2021/12/06 06:05:07;;;;;;;4.18;1.90;;;;;;;0.05;82.23;100879.50;6334510;22;20017;-74
2021/12/06 06:07:34;;;;;;;5.63;2.28;;;;;;;0.06;82.50;100886.34;6334247;22;20373;-75
2021/12/06 06:10:02;;;;;;;4.53;2.65;;;;;;;0.09;82.94;100896.66;6331788;22;20041;-76
2021/12/06 06:12:29;;;;;;;3.95;2.20;;;;;;;0.08;82.92;100884.72;6320721;22;20125;-76
2021/12/06 06:14:56;;;;;;;8.02;3.10;;;;;;;0.15;82.61;100891.78;6324354;22;20010;-75
2021/12/06 06:17:23;;;;;;;5.70;2.78;;;;;;;0.02;82.40;100894.69;6334404;22;20472;-76
2021/12/06 06:19:56;;;;;;;5.70;2.55;;;;;;;-0.01;82.89;100906.47;6333962;22;20090;-76
2021/12/06 06:22:24;;;;;;;3.55;2.17;;;;;;;-0.05;82.84;100903.75;6300356;22;20582;-76
2021/12/06 06:24:51;;;;;;;4.15;2.35;;;;;;;-0.07;82.88;100903.72;6334902;22;20400;-76
2021/12/06 06:27:18;;;;;;;4.97;2.80;;;;;;;-0.08;82.81;100909.63;6334853;22;20021;-77
2021/12/06 06:29:45;;;;;;;6.15;3.88;;;;;;;-0.07;83.09;100915.56;6334913;22;20017;-77
2021/12/06 06:32:13;;;;;;;8.27;3.78;;;;;;;-0.12;82.89;100917.09;6316407;22;20476;-76
2021/12/06 06:34:40;;;;;;;5.03;3.03;;;;;;;-0.10;83.28;100925.66;6324758;22;20394;-76
2021/12/06 06:37:10;;;;;;;4.57;3.20;;;;;;;-0.12;83.42;100928.16;6335088;22;20338;-76
2021/12/06 06:39:37;;;;;;;4.47;2.30;;;;;;;-0.13;83.77;100918.75;6334628;22;20072;-76
2021/12/06 06:42:05;;;;;;;4.55;2.53;;;;;;;-0.11;83.52;100923.91;6316606;22;20039;-76
2021/12/06 06:44:32;;;;;;;4.03;2.08;;;;;;;-0.10;83.73;100931.63;6326078;22;20956;-76
2021/12/06 06:46:59;;;;;;;4.25;2.05;;;;;;;-0.14;83.16;100934.88;6333173;22;20022;-76
2021/12/06 06:49:30;;;;;;;4.45;1.92;;;;;;;-0.17;82.89;100938.97;6330695;22;20010;-76
2021/12/06 06:51:59;;;;;;;4.55;2.15;;;;;;;-0.15;82.55;100937.34;6318670;22;20018;-77
2021/12/06 06:54:28;;;;;;;4.82;2.38;;;;;;;-0.15;82.67;100942.47;6319500;22;20054;-76
2021/12/06 06:56:56;;;;;;;3.22;1.90;;;;;;;-0.22;81.83;100951.53;6333736;22;20010;-75
2021/12/06 06:59:23;;;;;;;4.78;2.60;;;;;;;-0.20;82.42;100951.59;6332071;22;20022;-76
2021/12/06 07:01:50;;;;;;;6.22;2.35;;;;;;;-0.20;82.08;100955.03;6322862;22;20057;-76
2021/12/06 07:04:17;;;;;;;4.35;2.22;;;;;;;-0.18;81.94;100960.19;6314055;22;20015;-75
2021/12/06 07:06:45;;;;;;;5.50;2.92;;;;;;;-0.19;81.74;100961.84;6329195;22;20397;-76
2021/12/06 07:09:12;;;;;;;5.65;2.33;;;;;;;-0.20;82.33;100957.56;6329019;22;20011;-76
2021/12/06 07:11:44;;;;;;;5.68;2.88;;;;;;;-0.25;82.23;100951.44;6300146;22;20014;-79
2021/12/06 07:14:11;;;;;;;6.45;2.63;;;;;;;-0.27;82.37;100953.06;6319505;22;20515;-74
2021/12/06 07:16:39;;;;;;;6.43;2.88;;;;;;;-0.25;83.01;100966.72;6333949;22;20090;-73
2021/12/06 07:19:06;;;;;;;5.28;2.90;;;;;;;-0.25;82.78;100959.06;6333284;22;20403;-73
2021/12/06 07:21:33;;;;;;;7.72;2.88;;;;;;;-0.22;82.46;100966.84;6323183;22;20090;-74
2021/12/06 07:24:01;;;;;;;5.70;2.30;;;;;;;-0.26;82.10;100956.47;6306733;22;20051;-76
2021/12/06 07:26:28;;;;;;;4.75;2.63;;;;;;;-0.26;82.49;100954.78;6329895;22;20015;-77
2021/12/06 07:28:57;;;;;;;5.00;2.60;;;;;;;-0.23;82.69;100957.44;6332561;22;20311;-75
2021/12/06 07:31:25;;;;;;;6.38;2.83;;;;;;;-0.25;82.69;100946.34;6324892;22;20022;-76
2021/12/06 07:33:53;;;;;;;7.50;3.50;;;;;;;-0.23;81.99;100949.81;6317980;22;20319;-76
2021/12/06 07:36:23;;;;;;;7.00;3.10;;;;;;;-0.26;81.57;100947.16;6334010;22;20422;-78
2021/12/06 07:38:51;;;;;;;9.68;3.97;;;;;;;-0.24;82.02;100947.19;6333288;22;20015;-77
2021/12/06 07:41:21;;;;;;;7.28;3.42;;;;;;;-0.25;81.61;100940.38;6325552;22;20019;-75
2021/12/06 07:43:49;;;;;;;6.63;3.67;;;;;;;-0.26;81.16;100936.94;6311534;22;20053;-78
2021/12/06 07:46:18;;;;;;;7.03;3.70;;;;;;;-0.24;81.64;100937.88;6333974;22;20064;-76
2021/12/06 07:48:45;;;;;;;9.43;4.45;;;;;;;-0.24;81.76;100935.34;6334560;22;20349;-77
2021/12/06 07:51:12;;;;;;;5.90;2.83;;;;;;;-0.22;81.19;100936.25;6328137;22;20015;-78
2021/12/06 07:53:40;;;;;;;4.78;2.80;;;;;;;-0.22;81.06;100936.25;6308491;22;20064;-78
2021/12/06 07:56:08;;;;;;;4.93;2.60;;;;;;;-0.20;81.13;100943.97;6334806;22;20465;-78
2021/12/06 07:58:35;;;;;;;5.18;2.72;;;;;;;-0.19;81.13;100936.38;6332399;22;20069;-75
2021/12/06 08:01:02;;;;;;;7.30;2.40;;;;;;;-0.17;80.99;100944.06;6327993;22;20098;-76
2021/12/06 08:03:31;;;;;;;5.03;1.85;;;;;;;-0.14;81.47;100944.19;6317439;22;20074;-76
2021/12/06 08:06:00;;;;;;;6.45;1.90;;;;;;;-0.14;81.58;100944.19;6328923;22;20014;-77
2021/12/06 08:08:30;;;;;;;5.57;2.20;;;;;;;-0.16;81.85;100944.13;6332429;22;20014;-76
2021/12/06 08:11:00;;;;;;;5.97;1.80;;;;;;;-0.15;81.77;100950.97;6329547;22;20018;-77
2021/12/06 08:13:32;;;;;;;3.85;1.92;;;;;;;-0.20;81.74;100942.28;6328848;22;20334;-77
2021/12/06 08:16:05;;;;;;;5.03;2.47;;;;;;;-0.19;81.88;100950.78;6331446;22;20072;-76
2021/12/06 08:18:34;;;;;;;4.47;2.38;;;;;;;-0.18;81.83;100948.31;6332194;22;20019;-77
2021/12/06 08:21:01;;;;;;;4.90;2.60;;;;;;;-0.19;81.73;100951.66;6330618;22;20046;-80
2021/12/06 08:23:29;;;;;;;5.38;2.28;;;;;;;-0.18;81.65;100955.94;6309566;22;20492;-80
2021/12/06 08:25:56;;;;;;;10.57;3.22;;;;;;;-0.16;81.72;100956.00;6333579;22;20400;-75
2021/12/06 08:28:24;;;;;;;6.63;2.90;;;;;;;-0.16;81.71;100956.88;6335151;22;20014;-79
2021/12/06 08:30:53;;;;;;;4.45;2.40;;;;;;;-0.16;81.37;100956.00;6330333;22;20014;-78
2021/12/06 08:33:21;;;;;;;6.05;2.30;;;;;;;-0.17;81.45;100955.13;6308693;22;20480;-79
2021/12/06 08:35:52;;;;;;;5.05;2.53;;;;;;;-0.18;81.60;100958.50;6334988;22;20049;-78
2021/12/06 08:38:23;;;;;;;5.95;2.40;;;;;;;-0.20;81.39;100961.78;6335639;22;20056;-75
2021/12/06 08:40:51;;;;;;;4.35;2.40;;;;;;;-0.21;81.60;100958.38;6328855;22;20019;-76
2021/12/06 08:43:19;;;;;;;4.13;2.05;;;;;;;-0.25;81.28;100961.63;6319116;22;20019;-76
2021/12/06 08:45:52;;;;;;;6.43;2.50;;;;;;;-0.25;81.38;100960.75;6329975;22;20033;-75
2021/12/06 08:48:19;;;;;;;5.80;2.33;;;;;;;-0.27;81.49;100963.25;6334692;22;20010;-76
2021/12/06 08:50:46;;;;;;;5.18;2.45;;;;;;;-0.25;81.76;100969.25;6328023;22;20021;-76
2021/12/06 08:53:15;;;;;;;6.15;2.35;;;;;;;-0.25;81.55;100970.94;6306801;22;20015;-78
2021/12/06 08:55:43;;;;;;;3.35;2.10;;;;;;;-0.30;81.33;100968.22;6333401;22;20327;-78
2021/12/06 08:58:10;;;;;;;3.72;2.35;;;;;;;-0.26;81.62;100974.31;6333530;22;20065;-78
2021/12/06 09:00:39;;;;;;;5.68;2.30;;;;;;;-0.25;81.89;100970.94;6330994;22;20011;-76
2021/12/06 09:03:06;;;;;;;3.25;1.92;;;;;;;-0.24;82.11;100981.19;6308972;22;20011;-80
2021/12/06 09:05:37;;;;;;;5.05;2.10;;;;;;;-0.21;82.08;100978.75;6335748;22;20021;-80
2021/12/06 09:08:05;;;;;;;4.55;2.35;;;;;;;-0.22;81.97;100982.13;6335059;22;20015;-78
2021/12/06 09:10:34;;;;;;;4.70;2.15;;;;;;;-0.18;81.82;100989.06;6330251;22;20019;-78
2021/12/06 09:13:02;;;;;;;5.85;2.40;;;;;;;-0.17;81.87;100984.84;6299019;22;20085;-77
2021/12/06 09:15:30;;;;;;;4.90;2.72;;;;;;;-0.16;82.20;100987.44;6332841;22;20022;-77
2021/12/06 09:17:57;;;;;;;7.03;2.70;;;;;;;-0.14;82.14;100987.50;6333673;22;20017;-78
2021/12/06 09:20:27;;;;;;;6.93;3.13;;;;;;;-0.12;82.17;100984.22;6330220;22;20030;-78
2021/12/06 09:22:55;;;;;;;4.88;3.03;;;;;;;-0.12;82.30;100990.97;6307712;22;20029;-77
2021/12/06 09:25:23;;;;;;;4.10;2.92;;;;;;;-0.09;82.41;100994.53;6332090;22;20153;-77
2021/12/06 09:27:52;;;;;;;5.70;3.20;;;;;;;-0.08;82.37;100993.72;6331143;22;20046;-77
2021/12/06 09:30:26;;;;;;;4.63;3.05;;;;;;;-0.07;82.04;100992.91;6329895;22;20539;-76
2021/12/06 09:32:54;;;;;;;6.68;2.92;;;;;;;-0.05;82.05;100991.28;6307773;22;20019;-77
2021/12/06 09:35:26;;;;;;;5.93;3.80;;;;;;;-0.02;82.20;100996.50;6332782;22;20019;-77
2021/12/06 09:37:54;;;;;;;6.88;2.90;;;;;;;-0.02;82.04;100988.84;6333610;22;20400;-78
2021/12/06 09:40:23;;;;;;;3.60;2.53;;;;;;;-0.03;81.79;100994.75;6330304;22;20068;-77
2021/12/06 09:42:52;;;;;;;4.05;2.40;;;;;;;-0.03;81.52;100994.75;6307344;22;20022;-79
2021/12/06 09:45:23;;;;;;;5.13;2.80;;;;;;;-0.05;81.35;101001.47;6332311;22;20014;-76
2021/12/06 09:47:52;;;;;;;9.80;5.63;;;;;;;-0.05;81.82;100996.38;6332225;22;20089;-81
2021/12/06 09:50:24;;;;;;;10.02;4.20;;;;;;;-0.07;81.97;100992.91;6329312;22;20485;-77
2021/12/06 09:52:51;;;;;;;7.80;3.03;;;;;;;-0.14;82.29;100997.69;6307580;22;20015;-76
2021/12/06 09:55:19;;;;;;;5.82;2.47;;;;;;;-0.22;82.38;100997.41;6330082;22;20448;-78
2021/12/06 09:57:47;;;;;;;5.38;2.88;;;;;;;-0.23;82.58;101000.75;6333250;22;20029;-76
2021/12/06 10:00:20;;;;;;;4.07;2.50;;;;;;;-0.22;83.15;100999.94;6327752;22;20019;-78
2021/12/06 10:02:47;;;;;;;6.80;2.50;;;;;;;-0.21;83.17;100995.72;6307940;22;20076;-75
2021/12/06 10:05:15;;;;;;;5.00;2.85;;;;;;;-0.22;82.87;100997.41;6336601;22;20015;-76
2021/12/06 10:07:42;;;;;;;7.85;3.72;;;;;;;-0.19;83.31;100994.97;6334511;22;20068;-77
2021/12/06 10:10:13;;;;;;;10.77;4.78;;;;;;;-0.15;83.30;100991.75;6330855;22;20069;-79
2021/12/06 10:12:42;;;;;;;6.68;4.57;;;;;;;-0.17;83.52;101001.00;6301907;22;20010;-80
2021/12/06 10:15:10;;;;;;;5.32;3.65;;;;;;;-0.14;83.62;100996.03;6335301;22;20014;-79
2021/12/06 10:17:39;;;;;;;5.93;3.33;;;;;;;-0.12;83.61;100999.50;6335644;22;20472;-79
2021/12/06 10:20:09;;;;;;;4.68;2.80;;;;;;;-0.12;83.65;100994.41;6331015;22;20076;-77
2021/12/06 10:22:36;;;;;;;3.92;2.67;;;;;;;-0.09;83.51;100994.53;6310677;22;20025;-76
2021/12/06 10:25:06;;;;;;;6.10;3.45;;;;;;;-0.06;83.63;100994.63;6334975;22;20023;-75
2021/12/06 10:27:34;;;;;;;4.47;2.90;;;;;;;-0.07;82.84;100995.44;6333419;22;20015;-78
2021/12/06 10:30:07;;;;;;;4.82;2.08;;;;;;;-0.08;82.31;100980.97;6328143;22;20011;-77
2021/12/06 10:32:39;;;;;;;3.95;2.42;;;;;;;-0.05;82.41;100986.19;6306753;22;20329;-80
2021/12/06 10:35:13;;;;;;;4.72;2.30;;;;;;;-0.06;82.57;100984.44;6335267;22;20007;-78
2021/12/06 10:37:45;;;;;;;4.35;2.28;;;;;;;-0.03;82.19;100988.78;6336422;22;20017;-79
2021/12/06 10:40:17;;;;;;;5.25;2.35;;;;;;;0.02;82.33;100991.53;6334392;22;20014;-77
2021/12/06 10:42:46;;;;;;;3.08;1.98;;;;;;;0.03;81.32;100993.28;6313839;22;20071;-79
2021/12/06 10:45:18;;;;;;;4.32;2.42;;;;;;;0.02;81.16;100994.09;6336676;22;20029;-79
2021/12/06 10:48:06;;;;;;;3.92;1.60;;;;;;;0.01;80.22;100985.56;6335008;22;20076;-79
2021/12/06 10:50:36;;;;;;;3.13;1.65;;;;;;;0.01;79.93;100989.81;6328747;22;20023;-83
2021/12/06 10:53:05;;;;;;;4.18;2.33;;;;;;;-0.03;79.35;100989.66;6307733;22;20034;-83
2021/12/06 10:55:34;;;;;;;5.00;2.28;;;;;;;-0.04;79.39;100993.00;6332631;22;20019;-81
2021/12/06 10:58:05;;;;;;;3.90;1.98;;;;;;;-0.05;79.20;100993.81;6337075;22;20021;-82
2021/12/06 11:00:44;;;;;;;3.67;2.13;;;;;;;-0.09;79.52;100993.66;6330814;22;20046;-85
2021/12/06 11:03:30;;;;;;;2.70;1.83;;;;;;;-0.06;79.59;100994.63;6310618;22;20023;-84
2021/12/06 11:06:03;;;;;;;3.45;1.83;;;;;;;-0.06;79.77;100994.63;6336492;22;20011;-81
2021/12/06 11:08:34;;;;;;;3.35;1.70;;;;;;;-0.06;79.87;100994.63;6336372;22;20015;-79
2021/12/06 11:11:05;;;;;;;3.97;1.88;;;;;;;-0.05;79.82;100990.41;6333545;22;20015;-77
2021/12/06 11:13:35;;;;;;;4.40;1.83;;;;;;;-0.05;79.91;100988.72;6310023;22;20019;-78
2021/12/06 11:16:13;;;;;;;4.03;2.20;;;;;;;-0.02;79.88;100996.50;6335678;22;20021;-80
2021/12/06 11:18:46;;;;;;;3.85;1.90;;;;;;;0.01;79.90;100992.34;6335365;22;20011;-76
2021/12/06 11:21:30;;;;;;;3.30;2.03;;;;;;;-0.01;79.47;100998.22;6329391;22;20400;-79
2021/12/06 11:24:03;;;;;;;4.90;2.40;;;;;;;-0.01;79.48;101000.78;6316482;22;20014;-77
2021/12/06 11:26:32;;;;;;;6.60;3.25;;;;;;;-0.01;79.61;100998.22;6335806;22;20090;-79
2021/12/06 11:29:06;;;;;;;6.05;3.55;;;;;;;-0.02;79.42;100995.63;6335246;22;20072;-80
2021/12/06 11:31:35;;;;;;;6.95;2.17;;;;;;;-0.03;78.93;100997.31;6328252;22;20018;-78
2021/12/06 11:34:05;;;;;;;3.13;1.70;;;;;;;-0.07;78.37;101003.09;6315903;22;20015;-78
2021/12/06 11:36:34;;;;;;;5.30;2.50;;;;;;;-0.06;78.53;101002.28;6335880;22;20019;-76